• Join FlightAware (Why Join?)
  • Login
  • US Flag 
04:41AM EST


 

Airport Tracker/Info


-or-


 

Live Flight TrackerFlight Track Log ✈ BJS439 ✈ 19-Apr-2013 ✈ KGSO - KORF

Flight Track Log - Related Links

Times and Time Zones

All times are in EDT time to prevent confusion due to time zone crossing. See the BJS439 flight status page for this flight to view local times or setup timezone preferences in your user account.

Time Position Orientation Groundspeed Altitude Reporting Facility
EDT Latitude Longitude Course Direction KTS MPH feet Rate Location/Type
01:34PM 36.0525 -79.8081 50° Northeast 344 396 8,000  Level Washington Center
01:35PM 36.1183 -79.7217 47° Northeast 353 406 10,800 2,400 Climbing Washington Center
01:36PM 36.1858 -79.6350 46° Northeast 372 428 12,900 3,240 Climbing Washington Center
01:37PM 36.2617 -79.5600 58° Northeast  Level FlightAware Approximate
01:37PM 36.2731 -79.5183 47° Northeast 405 466 17,300  Level Washington Center
01:38PM 36.3170 -79.4660 58° Northeast  Level FlightAware Approximate
01:38PM 36.3458 -79.3983 53° Northeast 422 486 19,000  Level Washington Center
01:39PM 36.3740 -79.3723 50° Northeast  Level FlightAware Approximate
01:39PM 36.3336 -79.2583 96° East 383 441 19,000  Level Washington Center
01:40PM 36.3003 -79.1203 107° East 383 441 19,000  Level Washington Center
01:41PM 36.2753 -78.9697 102° East 412 474 19,000  Level Washington Center
01:42PM 36.3067 -78.8189 75° East 436 502 19,000  Level Washington Center
01:43PM 36.3419 -78.6708 73° East 436 502 19,000  Level Washington Center
01:44PM 36.3747 -78.5278 74° East 436 502 19,000 -540 Level Washington Center
01:45PM 36.4072 -78.3819 74° East 436 502 18,000 -1,140 Descending Washington Center
01:46PM 36.4350 -78.2667 73° East 431 496 16,800 -1,500 Descending Washington Center
01:47PM 36.4719 -78.1078 74° East 431 496 15,100 -1,380 Descending Washington Center
01:48PM 36.5039 -77.9667 74° East 426 490 14,100 -1,080 Descending Washington Center
01:49PM 36.5336 -77.8281 75° East 419 482 13,000 -600 Descending Washington Center
01:50PM 36.5633 -77.6917 75° East 412 474 12,900 -60 Descending Washington Center
01:51PM 36.5950 -77.5531 74° East 412 474 12,900 -300 Level Washington Center
01:52PM 36.6261 -77.4167 74° East 412 474 12,400 -900 Descending Washington Center
01:53PM 36.6575 -77.2722 75° East 411 473 11,200 -660 Descending Washington Center
01:54PM 36.6931 -77.1072 75° East 397 457 11,000 -300 Descending Washington Center
01:56PM 36.6917 -76.8689 90° East 383 441 10,300 -660 Descending Washington Center
01:57PM 36.6700 -76.7469 102° East 309 356 9,200 -1,080 Descending Washington Center
01:58PM 36.6853 -76.6592 78° East 339 390 8,200 -1,200 Descending Washington Center
01:59PM 36.7094 -76.5428 75° East 319 367 7,000 -1,200 Descending Washington Center
02:00PM 36.7353 -76.4083 76° East 313 360 5,600 -1,080 Descending Washington Center
02:01PM 36.7525 -76.3333 74° East 309 356 4,900 -600 Descending Washington Center
02:01PM 36.7569 -76.3075 78° East 304 350 5,000  Climbing Washington Center
02:02PM 36.7781 -76.2350 70° East 303 349 4,900  Descending Washington Center
02:02PM 36.8033 -76.2119 36° Northeast 296 341 5,000 -420 Climbing Washington Center
02:03PM 36.8600 -76.1500 41° Northeast 253 291 4,400 -1,260 Descending Washington Center
02:04PM 36.9061 -76.1061 37° Northeast 254 292 2,800 -1,380 Descending Washington Center
02:05PM 36.9517 -76.1300 337° Northwest 157 181 1,800 -960 Descending Washington Center